createdAt,value
2017-11-29T00:01:46.821Z,97.90
2017-11-29T00:04:14.323Z,97.90
2017-11-29T00:06:41.826Z,97.80
2017-11-29T00:09:09.310Z,98.00
2017-11-29T00:11:37.565Z,98.10
2017-11-29T00:14:05.074Z,98.10
2017-11-29T00:16:32.589Z,97.90
2017-11-29T00:19:00.911Z,98.10
2017-11-29T00:21:28.406Z,98.10
2017-11-29T00:23:55.885Z,98.20
2017-11-29T00:26:23.424Z,98.20
2017-11-29T00:28:50.910Z,98.10
2017-11-29T00:31:18.375Z,98.10
2017-11-29T00:33:46.663Z,98.00
2017-11-29T00:36:14.913Z,98.20
2017-11-29T00:38:42.420Z,98.00
2017-11-29T00:41:09.892Z,98.20
2017-11-29T00:43:37.388Z,98.10
2017-11-29T00:46:05.709Z,98.20
2017-11-29T00:48:33.204Z,98.30
2017-11-29T00:51:00.701Z,98.20
2017-11-29T00:53:28.181Z,98.30
2017-11-29T00:55:56.472Z,98.20
2017-11-29T00:58:23.951Z,98.20
2017-11-29T01:00:51.476Z,98.30
2017-11-29T01:03:18.968Z,98.30
2017-11-29T01:05:46.483Z,98.20
2017-11-29T01:08:14.722Z,98.20
2017-11-29T01:10:42.215Z,98.20
2017-11-29T01:13:09.725Z,98.30
2017-11-29T01:15:37.229Z,98.20
2017-11-29T01:18:04.705Z,98.30
2017-11-29T01:20:32.947Z,98.30
2017-11-29T01:23:00.465Z,98.30
2017-11-29T01:25:27.961Z,98.40
2017-11-29T01:27:55.481Z,98.30
2017-11-29T01:30:22.953Z,98.30
2017-11-29T01:32:50.444Z,98.30
2017-11-29T01:35:17.928Z,98.30
2017-11-29T01:37:46.204Z,98.50
2017-11-29T01:40:14.543Z,98.60
2017-11-29T01:42:42.071Z,98.50
2017-11-29T01:45:09.570Z,98.70
2017-11-29T01:47:37.080Z,98.80
2017-11-29T01:50:04.556Z,98.70
2017-11-29T01:52:32.028Z,98.80
2017-11-29T01:54:59.512Z,98.80
2017-11-29T01:57:27.017Z,98.90
2017-11-29T01:59:54.488Z,98.90
2017-11-29T02:02:21.957Z,99.10
2017-11-29T02:04:49.436Z,99.10
2017-11-29T02:07:16.911Z,99.10
2017-11-29T02:09:44.407Z,99.10
2017-11-29T02:12:11.915Z,99.10
2017-11-29T02:14:39.415Z,99.20
2017-11-29T02:17:07.662Z,99.30
2017-11-29T02:19:35.135Z,99.30
2017-11-29T02:22:02.638Z,99.30
2017-11-29T02:24:30.151Z,99.30
2017-11-29T02:26:58.430Z,99.80
2017-11-29T02:29:26.694Z,99.80
2017-11-29T02:31:54.180Z,99.80
2017-11-29T02:34:22.488Z,99.70
2017-11-29T02:36:50.049Z,99.70
2017-11-29T02:39:17.554Z,99.70
2017-11-29T02:41:56.989Z,99.80
2017-11-29T02:44:24.476Z,99.90
2017-11-29T02:46:52.762Z,99.90
2017-11-29T02:49:20.267Z,99.90
2017-11-29T02:51:47.758Z,99.90
2017-11-29T02:54:15.257Z,99.90
2017-11-29T02:56:42.764Z,99.90
2017-11-29T02:59:10.253Z,99.90
2017-11-29T03:01:38.500Z,99.90
2017-11-29T03:04:05.999Z,99.90
2017-11-29T03:06:33.496Z,99.90
2017-11-29T03:09:01.026Z,99.90
2017-11-29T03:11:28.514Z,99.90
2017-11-29T03:13:56.015Z,99.90
2017-11-29T03:16:24.256Z,99.90
2017-11-29T03:18:51.752Z,99.90
2017-11-29T03:21:20.431Z,99.90
2017-11-29T03:23:48.677Z,99.90
2017-11-29T03:26:16.160Z,99.90
2017-11-29T03:28:43.650Z,99.90
2017-11-29T03:31:11.175Z,99.90
2017-11-29T03:33:38.700Z,99.90
2017-11-29T03:36:06.194Z,99.90
2017-11-29T03:38:33.668Z,99.90
2017-11-29T03:41:01.916Z,99.90
2017-11-29T03:43:30.899Z,99.90
2017-11-29T03:45:58.364Z,99.90
2017-11-29T03:48:25.877Z,99.90
2017-11-29T03:50:53.356Z,99.90
2017-11-29T03:53:20.906Z,99.90
2017-11-29T03:55:48.403Z,99.90
2017-11-29T03:58:15.982Z,99.90
2017-11-29T04:00:44.229Z,99.90
2017-11-29T04:03:11.718Z,99.90
2017-11-29T04:05:39.201Z,99.90
2017-11-29T04:08:06.697Z,99.90
2017-11-29T04:10:34.224Z,99.90
2017-11-29T04:13:01.787Z,99.90
2017-11-29T04:15:29.307Z,99.90
2017-11-29T04:17:56.827Z,99.90
2017-11-29T04:20:24.330Z,99.90
2017-11-29T04:22:51.799Z,99.90
2017-11-29T04:25:19.285Z,99.90
2017-11-29T04:27:46.768Z,99.90
2017-11-29T04:30:14.270Z,99.90
2017-11-29T04:32:42.528Z,99.90
2017-11-29T04:35:10.034Z,99.90
2017-11-29T04:37:38.396Z,99.90
2017-11-29T04:40:06.654Z,99.90
2017-11-29T04:42:34.903Z,99.90
2017-11-29T04:45:02.437Z,99.90
2017-11-29T04:47:30.038Z,99.90
2017-11-29T04:49:57.634Z,99.90
2017-11-29T04:52:26.638Z,99.90
2017-11-29T04:54:54.214Z,99.90
2017-11-29T04:57:21.952Z,99.90
2017-11-29T04:59:50.228Z,99.90
2017-11-29T05:02:18.488Z,99.90
2017-11-29T05:04:46.726Z,99.90
2017-11-29T05:07:14.248Z,99.90
2017-11-29T05:09:42.495Z,99.90
2017-11-29T05:12:09.973Z,99.90
2017-11-29T05:14:38.276Z,99.90
2017-11-29T05:17:05.804Z,99.90
2017-11-29T05:19:33.345Z,99.90
2017-11-29T05:22:00.820Z,99.90
2017-11-29T05:24:28.309Z,99.90
2017-11-29T05:26:55.832Z,99.90
2017-11-29T05:29:23.332Z,99.90
2017-11-29T05:31:50.845Z,99.90
2017-11-29T05:34:18.349Z,99.90
2017-11-29T05:36:46.683Z,99.90
2017-11-29T05:39:14.186Z,99.90
2017-11-29T05:41:42.424Z,99.90
2017-11-29T05:44:09.921Z,99.90
2017-11-29T05:46:37.419Z,99.90
2017-11-29T05:49:06.458Z,99.90
2017-11-29T05:51:34.193Z,99.90
2017-11-29T05:54:02.479Z,99.90
2017-11-29T05:56:30.250Z,99.90
2017-11-29T05:58:58.504Z,99.90
2017-11-29T06:01:26.038Z,99.90
2017-11-29T06:03:53.631Z,99.90
2017-11-29T06:06:22.620Z,99.90
2017-11-29T06:08:50.096Z,99.90
2017-11-29T06:11:17.578Z,99.90
2017-11-29T06:13:45.835Z,99.90
2017-11-29T06:16:14.096Z,99.90
2017-11-29T06:18:41.606Z,99.90
2017-11-29T06:21:09.089Z,99.90
2017-11-29T06:23:36.615Z,99.90
2017-11-29T06:26:04.105Z,99.90
2017-11-29T06:28:31.587Z,99.90
2017-11-29T06:30:59.112Z,99.90
2017-11-29T06:33:26.789Z,99.90
2017-11-29T06:35:54.281Z,99.90
2017-11-29T06:38:21.772Z,99.90
2017-11-29T06:40:49.253Z,99.90
2017-11-29T06:43:16.727Z,99.90
2017-11-29T06:45:44.206Z,99.90
2017-11-29T06:48:11.688Z,99.90
2017-11-29T06:50:39.942Z,99.90
2017-11-29T06:53:07.426Z,99.90
2017-11-29T06:55:35.943Z,99.90
2017-11-29T06:58:03.421Z,99.90
2017-11-29T07:00:30.909Z,99.90
2017-11-29T07:02:58.369Z,99.90
2017-11-29T07:05:25.840Z,99.90
2017-11-29T07:07:54.073Z,99.90
2017-11-29T07:10:21.560Z,99.90
2017-11-29T07:12:49.085Z,99.90
2017-11-29T07:15:16.684Z,99.90
2017-11-29T07:17:44.196Z,99.90
2017-11-29T07:20:11.668Z,99.90
2017-11-29T07:22:39.153Z,99.90
2017-11-29T07:25:06.660Z,99.90
2017-11-29T07:27:34.153Z,99.90
2017-11-29T07:30:01.680Z,99.90
2017-11-29T07:32:29.141Z,99.90
2017-11-29T07:34:56.671Z,99.90
2017-11-29T07:37:24.898Z,99.90
2017-11-29T07:39:52.386Z,99.90
2017-11-29T07:42:21.380Z,99.90
2017-11-29T07:44:48.853Z,99.90
2017-11-29T07:47:17.079Z,99.90
2017-11-29T07:49:44.563Z,99.90
2017-11-29T07:52:12.031Z,99.90
2017-11-29T07:54:39.532Z,99.90
2017-11-29T07:57:07.069Z,99.90
2017-11-29T07:59:35.327Z,99.90
2017-11-29T08:02:02.797Z,99.90
2017-11-29T08:04:31.313Z,99.90
2017-11-29T08:06:58.825Z,99.90
2017-11-29T08:09:26.284Z,99.80
2017-11-29T08:11:54.673Z,95.80
2017-11-29T08:14:22.128Z,94.10
2017-11-29T08:16:50.385Z,86.40
2017-11-29T08:19:17.848Z,86.50
2017-11-29T08:21:45.333Z,86.80
2017-11-29T08:24:13.588Z,85.40
2017-11-29T08:26:41.067Z,85.50
2017-11-29T08:29:09.298Z,75.10
2017-11-29T08:31:36.825Z,75.10
2017-11-29T08:34:04.388Z,74.00
2017-11-29T08:36:33.540Z,72.60
2017-11-29T08:39:01.428Z,69.70
2017-11-29T08:41:29.660Z,68.40
2017-11-29T08:43:57.216Z,68.20
2017-11-29T08:46:24.720Z,68.30
2017-11-29T08:48:53.140Z,59.70
2017-11-29T08:51:20.982Z,59.80
2017-11-29T08:53:49.257Z,61.30
2017-11-29T08:56:17.129Z,61.40
2017-11-29T08:58:45.529Z,58.60
2017-11-29T09:01:12.997Z,59.10
2017-11-29T09:03:40.473Z,58.60
2017-11-29T09:06:07.984Z,58.90
2017-11-29T09:08:35.577Z,59.10
2017-11-29T09:11:03.146Z,56.10
2017-11-29T09:13:30.669Z,60.30
2017-11-29T09:15:58.180Z,55.70
2017-11-29T09:18:25.665Z,55.90
2017-11-29T09:20:53.923Z,55.00
2017-11-29T09:23:21.432Z,55.00
2017-11-29T09:25:48.934Z,57.10
2017-11-29T09:28:16.542Z,53.60
2017-11-29T09:30:44.077Z,52.50
2017-11-29T09:33:12.353Z,51.60
2017-11-29T09:35:40.000Z,51.60
2017-11-29T09:38:07.613Z,49.30
2017-11-29T09:40:35.096Z,47.80
2017-11-29T09:43:02.588Z,48.60
2017-11-29T09:45:30.152Z,52.20
2017-11-29T09:47:57.986Z,53.30
2017-11-29T09:50:25.485Z,50.10
2017-11-29T09:52:53.756Z,50.10
2017-11-29T09:55:22.081Z,47.10
2017-11-29T09:57:49.565Z,47.30
2017-11-29T10:00:17.104Z,48.30
2017-11-29T10:02:44.656Z,48.90
2017-11-29T10:05:12.364Z,48.90
2017-11-29T10:07:39.860Z,48.10
2017-11-29T10:10:07.378Z,46.50
2017-11-29T10:12:35.138Z,46.90
2017-11-29T10:15:02.712Z,45.10
2017-11-29T10:17:30.354Z,43.30
2017-11-29T10:19:58.101Z,45.40
2017-11-29T10:22:25.583Z,45.30
2017-11-29T10:24:53.086Z,42.50
2017-11-29T10:27:21.385Z,45.90
2017-11-29T10:29:48.878Z,45.90
2017-11-29T10:32:16.345Z,43.70
2017-11-29T10:34:43.842Z,45.50
2017-11-29T10:37:12.160Z,44.20
2017-11-29T10:39:39.623Z,44.30
2017-11-29T10:42:07.255Z,44.50
2017-11-29T10:44:34.784Z,45.10
2017-11-29T10:47:03.284Z,44.80
2017-11-29T10:49:31.040Z,44.80
2017-11-29T10:51:59.309Z,48.10
2017-11-29T10:54:27.041Z,48.10
2017-11-29T10:56:54.724Z,49.90
2017-11-29T10:59:22.230Z,50.50
2017-11-29T11:01:49.949Z,50.70
2017-11-29T11:04:17.569Z,48.90
2017-11-29T11:06:45.166Z,46.40
2017-11-29T11:09:12.724Z,47.70
2017-11-29T11:11:40.214Z,48.90
2017-11-29T11:14:08.605Z,51.80
2017-11-29T11:16:36.106Z,51.70
2017-11-29T11:19:03.728Z,50.10
2017-11-29T11:21:31.230Z,52.00
2017-11-29T11:23:58.784Z,54.20
2017-11-29T11:26:26.388Z,53.70
2017-11-29T11:28:54.637Z,56.70
2017-11-29T11:31:22.131Z,56.50
2017-11-29T11:33:50.793Z,53.40
2017-11-29T11:36:18.807Z,53.40
2017-11-29T11:38:46.385Z,53.90
2017-11-29T11:41:14.044Z,55.20
2017-11-29T11:43:42.201Z,57.90
2017-11-29T11:46:09.717Z,61.20
2017-11-29T11:48:37.320Z,63.80
2017-11-29T11:51:05.081Z,65.70
2017-11-29T11:53:32.670Z,66.30
2017-11-29T11:56:00.149Z,67.40
2017-11-29T11:58:27.760Z,70.70
2017-11-29T12:00:56.127Z,72.30
2017-11-29T12:03:24.356Z,71.00
2017-11-29T12:05:52.008Z,71.00
2017-11-29T12:08:19.569Z,72.30
2017-11-29T12:10:47.134Z,74.20
2017-11-29T12:13:14.608Z,72.80
2017-11-29T12:15:42.117Z,71.50
2017-11-29T12:18:09.605Z,73.30
2017-11-29T12:20:37.235Z,72.80
2017-11-29T12:23:05.471Z,75.70
2017-11-29T12:25:32.965Z,75.60
2017-11-29T12:28:01.213Z,77.00
2017-11-29T12:30:28.712Z,77.00
2017-11-29T12:32:57.247Z,77.40
2017-11-29T12:35:24.710Z,77.50
2017-11-29T12:37:52.207Z,78.80
2017-11-29T12:40:20.442Z,80.50
2017-11-29T12:42:47.919Z,80.50
2017-11-29T12:45:15.395Z,80.30
2017-11-29T12:47:43.632Z,80.20
2017-11-29T12:50:22.881Z,80.20
2017-11-29T12:52:50.373Z,81.40
2017-11-29T12:55:18.635Z,82.30
2017-11-29T12:57:46.873Z,83.40
2017-11-29T13:00:14.384Z,82.70
2017-11-29T13:02:41.889Z,82.10
2017-11-29T13:05:09.382Z,83.60
2017-11-29T13:07:37.186Z,84.70
2017-11-29T13:10:04.664Z,84.30
2017-11-29T13:12:32.141Z,84.80
2017-11-29T13:14:59.606Z,84.40
2017-11-29T13:17:27.149Z,85.70
2017-11-29T13:19:54.632Z,87.90
2017-11-29T13:22:22.168Z,87.00
2017-11-29T13:24:49.880Z,86.10
2017-11-29T13:27:18.230Z,85.00
2017-11-29T13:29:45.725Z,84.90
2017-11-29T13:32:13.405Z,83.40
2017-11-29T13:34:41.143Z,83.30
2017-11-29T13:37:09.858Z,84.60
2017-11-29T13:39:37.520Z,84.60
2017-11-29T13:42:05.090Z,78.10
2017-11-29T13:44:32.585Z,78.90
2017-11-29T13:47:00.649Z,79.00
2017-11-29T13:49:28.233Z,81.20
2017-11-29T13:51:56.684Z,81.40
2017-11-29T13:54:24.264Z,81.30
2017-11-29T13:56:51.813Z,83.40
2017-11-29T13:59:19.312Z,84.00
2017-11-29T14:01:46.843Z,85.70
2017-11-29T14:04:14.505Z,85.60
2017-11-29T14:06:41.983Z,85.40
2017-11-29T14:09:10.346Z,86.50
2017-11-29T14:11:37.975Z,86.50
2017-11-29T14:14:05.826Z,85.90
2017-11-29T14:16:33.308Z,86.90
2017-11-29T14:19:00.805Z,87.30
2017-11-29T14:21:29.774Z,86.40
2017-11-29T14:23:58.164Z,86.10
2017-11-29T14:26:25.814Z,86.10
2017-11-29T14:28:53.330Z,85.40
2017-11-29T14:31:20.779Z,84.40
2017-11-29T14:33:48.239Z,84.90
2017-11-29T14:36:15.723Z,85.00
2017-11-29T14:38:43.205Z,85.80
2017-11-29T14:41:10.693Z,86.20
2017-11-29T14:43:39.476Z,86.70
2017-11-29T14:46:07.013Z,87.10
2017-11-29T14:48:34.499Z,87.80
2017-11-29T14:51:02.768Z,87.10
2017-11-29T14:53:31.348Z,88.50
2017-11-29T14:55:58.916Z,88.50
2017-11-29T14:58:27.376Z,89.10
2017-11-29T15:00:54.847Z,89.00
2017-11-29T15:03:22.334Z,89.00
2017-11-29T15:05:50.705Z,88.30
2017-11-29T15:08:19.059Z,88.50
2017-11-29T15:10:46.534Z,88.50
2017-11-29T15:13:14.001Z,90.10
2017-11-29T15:15:42.228Z,90.30
2017-11-29T15:18:09.737Z,90.30
2017-11-29T15:20:38.128Z,90.40
2017-11-29T15:23:06.362Z,90.50
2017-11-29T15:25:38.793Z,91.20
2017-11-29T15:28:06.276Z,90.90
2017-11-29T15:30:33.753Z,90.80
2017-11-29T15:33:01.432Z,90.90
2017-11-29T15:35:29.088Z,90.90
2017-11-29T15:37:56.600Z,91.40
2017-11-29T15:40:24.158Z,91.50
2017-11-29T15:42:51.713Z,92.20
2017-11-29T15:45:19.200Z,92.00
2017-11-29T15:47:46.675Z,92.10
2017-11-29T15:50:14.191Z,92.10
2017-11-29T15:52:41.745Z,92.10
2017-11-29T15:55:09.232Z,92.10
2017-11-29T15:57:36.705Z,92.00
2017-11-29T16:00:04.187Z,92.30
2017-11-29T16:02:31.647Z,92.40
2017-11-29T16:04:59.127Z,92.60
2017-11-29T16:07:27.367Z,93.40
2017-11-29T16:09:54.865Z,93.40
2017-11-29T16:12:23.096Z,93.40
2017-11-29T16:14:50.567Z,93.40
2017-11-29T16:17:18.047Z,93.70
2017-11-29T16:19:46.273Z,94.10
2017-11-29T16:22:13.736Z,94.00
2017-11-29T16:24:41.204Z,93.80
2017-11-29T16:27:08.680Z,94.50
2017-11-29T16:29:36.928Z,94.30
2017-11-29T16:32:04.485Z,94.30
2017-11-29T16:34:32.049Z,94.20
2017-11-29T16:36:59.540Z,94.40
2017-11-29T16:39:27.037Z,94.20
2017-11-29T16:41:54.532Z,94.10
2017-11-29T16:44:22.014Z,94.30
2017-11-29T16:46:49.473Z,94.60
2017-11-29T16:49:16.970Z,94.70
2017-11-29T16:51:44.467Z,94.80
2017-11-29T16:54:12.207Z,95.00
2017-11-29T16:56:39.682Z,94.70
2017-11-29T16:59:07.209Z,94.90
2017-11-29T17:01:34.684Z,94.90
2017-11-29T17:04:02.233Z,95.00
2017-11-29T17:06:29.732Z,95.10
2017-11-29T17:08:57.266Z,94.90
2017-11-29T17:11:24.847Z,95.00
2017-11-29T17:13:52.318Z,95.30
2017-11-29T17:16:19.800Z,95.50
2017-11-29T17:18:48.051Z,95.60
2017-11-29T17:21:15.561Z,95.60
2017-11-29T17:23:43.028Z,95.40
2017-11-29T17:26:10.493Z,95.30
2017-11-29T17:28:37.978Z,95.40
2017-11-29T17:31:05.573Z,96.00
2017-11-29T17:33:33.838Z,95.90
2017-11-29T17:36:01.324Z,95.90
2017-11-29T17:38:29.580Z,96.20
2017-11-29T17:40:57.052Z,96.20
2017-11-29T17:43:25.306Z,96.10
2017-11-29T17:45:52.809Z,96.10
2017-11-29T17:48:20.293Z,95.90
2017-11-29T17:50:47.758Z,96.00
2017-11-29T17:53:15.275Z,96.70
2017-11-29T17:55:43.669Z,96.60
2017-11-29T17:58:12.847Z,96.20
2017-11-29T18:00:43.704Z,96.90
2017-11-29T18:03:11.193Z,96.80
2017-11-29T18:05:39.904Z,96.90
2017-11-29T18:08:07.389Z,97.00
2017-11-29T18:10:34.946Z,96.90
2017-11-29T18:13:02.668Z,97.20
2017-11-29T18:15:30.167Z,96.90
2017-11-29T18:17:58.451Z,97.10
2017-11-29T18:20:26.704Z,97.00
2017-11-29T18:22:54.163Z,97.00
2017-11-29T18:25:21.642Z,97.10
2017-11-29T18:27:49.876Z,96.90
2017-11-29T18:30:17.351Z,96.90
2017-11-29T18:32:45.619Z,96.40
2017-11-29T18:35:13.151Z,96.40
2017-11-29T18:37:40.616Z,96.30
2017-11-29T18:40:08.522Z,96.40
2017-11-29T18:42:36.032Z,96.70
2017-11-29T18:45:03.775Z,96.50
2017-11-29T18:47:31.280Z,96.40
2017-11-29T18:49:58.773Z,96.50
2017-11-29T18:52:27.077Z,97.00
2017-11-29T18:54:54.569Z,97.00
2017-11-29T18:57:23.154Z,97.30
2017-11-29T18:59:50.649Z,97.40
2017-11-29T19:02:18.886Z,97.80
2017-11-29T19:04:46.372Z,97.80
2017-11-29T19:07:13.869Z,97.60
2017-11-29T19:09:41.531Z,97.50
2017-11-29T19:12:09.045Z,97.70
2017-11-29T19:14:36.575Z,98.00
2017-11-29T19:17:04.105Z,97.80
2017-11-29T19:19:32.492Z,97.80
2017-11-29T19:21:59.962Z,97.70
2017-11-29T19:24:27.507Z,97.40
2017-11-29T19:26:56.112Z,97.50
2017-11-29T19:29:23.620Z,97.40
2017-11-29T19:31:51.073Z,97.40
2017-11-29T19:34:18.541Z,97.50
2017-11-29T19:36:46.804Z,97.30
2017-11-29T19:39:14.277Z,97.20
2017-11-29T19:41:42.516Z,97.00
2017-11-29T19:44:10.019Z,97.00
2017-11-29T19:46:37.568Z,96.90
2017-11-29T19:49:05.085Z,96.90
2017-11-29T19:51:32.584Z,97.10
2017-11-29T19:54:00.823Z,97.30
2017-11-29T19:56:28.287Z,97.20
2017-11-29T19:58:56.507Z,97.10
2017-11-29T20:01:24.757Z,97.40
2017-11-29T20:03:53.379Z,97.40
2017-11-29T20:06:20.881Z,97.80
2017-11-29T20:08:48.607Z,97.70
2017-11-29T20:11:16.102Z,97.70
2017-11-29T20:13:45.859Z,97.50
2017-11-29T20:16:14.127Z,97.70
2017-11-29T20:18:42.389Z,97.80
2017-11-29T20:21:10.171Z,97.80
2017-11-29T20:23:39.156Z,97.80
2017-11-29T20:26:07.473Z,97.70
2017-11-29T20:28:36.821Z,97.70
2017-11-29T20:31:05.522Z,97.70
2017-11-29T20:33:33.896Z,97.70
2017-11-29T20:36:02.026Z,97.70
2017-11-29T20:38:30.148Z,97.50
2017-11-29T20:40:57.700Z,97.60
2017-11-29T20:43:25.299Z,97.60
2017-11-29T20:45:53.045Z,97.50
2017-11-29T20:48:21.424Z,97.60
2017-11-29T20:50:49.148Z,97.60
2017-11-29T20:53:16.750Z,97.70
2017-11-29T20:55:45.132Z,97.90
2017-11-29T20:58:13.397Z,98.00
2017-11-29T21:00:41.016Z,98.00
2017-11-29T21:03:08.525Z,98.10
2017-11-29T21:05:36.840Z,98.20
2017-11-29T21:08:04.318Z,98.20
2017-11-29T21:10:31.977Z,98.20
2017-11-29T21:12:59.457Z,98.30
2017-11-29T21:15:27.748Z,98.70
2017-11-29T21:17:56.034Z,98.30
2017-11-29T21:20:24.277Z,98.60
2017-11-29T21:22:51.756Z,98.40
2017-11-29T21:25:20.977Z,98.40
2017-11-29T21:27:48.493Z,98.40
2017-11-29T21:30:15.977Z,98.40
2017-11-29T21:32:44.271Z,98.70
2017-11-29T21:35:12.573Z,98.80
2017-11-29T21:37:40.367Z,98.80
2017-11-29T21:40:07.850Z,99.10
2017-11-29T21:42:36.318Z,99.20
2017-11-29T21:45:03.823Z,99.20
2017-11-29T21:47:32.077Z,99.50
2017-11-29T21:49:59.553Z,99.10
2017-11-29T21:52:27.805Z,99.10
2017-11-29T21:54:55.317Z,99.10
2017-11-29T21:57:22.780Z,99.30
2017-11-29T21:59:50.349Z,99.30
2017-11-29T22:02:17.852Z,99.40
2017-11-29T22:04:45.358Z,99.50
2017-11-29T22:07:12.869Z,99.70
2017-11-29T22:09:40.441Z,99.90
2017-11-29T22:12:08.678Z,99.90
2017-11-29T22:14:36.166Z,99.90
2017-11-29T22:17:04.447Z,99.90
2017-11-29T22:19:32.676Z,99.90
2017-11-29T22:22:00.158Z,99.90
2017-11-29T22:24:27.687Z,99.90
2017-11-29T22:26:55.156Z,99.90
2017-11-29T22:29:22.642Z,99.90
2017-11-29T22:31:50.114Z,99.90
2017-11-29T22:34:18.397Z,99.90
2017-11-29T22:36:46.625Z,99.90
2017-11-29T22:39:14.134Z,99.90
2017-11-29T22:41:42.379Z,99.90
2017-11-29T22:44:09.861Z,99.90
2017-11-29T22:46:38.096Z,99.90
2017-11-29T22:49:05.599Z,99.90
2017-11-29T22:51:33.857Z,99.70
2017-11-29T22:54:01.352Z,99.70
2017-11-29T22:56:28.898Z,99.70
2017-11-29T22:58:57.156Z,99.50
2017-11-29T23:01:24.650Z,99.50
2017-11-29T23:03:52.153Z,99.20
2017-11-29T23:06:19.637Z,99.30
2017-11-29T23:08:47.137Z,99.30
2017-11-29T23:11:14.605Z,99.30
2017-11-29T23:13:42.057Z,99.30
2017-11-29T23:16:09.536Z,99.20
2017-11-29T23:18:37.036Z,99.00
2017-11-29T23:21:05.295Z,98.40
2017-11-29T23:23:32.811Z,98.30
2017-11-29T23:26:00.295Z,98.10
2017-11-29T23:28:27.772Z,97.90
2017-11-29T23:30:56.752Z,98.10
2017-11-29T23:33:24.236Z,98.10
2017-11-29T23:35:51.917Z,98.20
2017-11-29T23:38:20.180Z,98.30
2017-11-29T23:40:48.422Z,98.40
2017-11-29T23:43:15.897Z,98.40
2017-11-29T23:45:43.366Z,98.50
2017-11-29T23:48:10.852Z,98.60
2017-11-29T23:50:38.376Z,98.60
2017-11-29T23:53:05.845Z,98.50
2017-11-29T23:55:34.100Z,98.30
2017-11-29T23:58:01.577Z,98.30
